Time;durP1;ratioP1;P1;durP2;ratioP2;P2;SDS_P1;SDS_P2;PMS_P1;PMS_P2;Temp;Humidity;BMP_temperature;BMP_pressure;BME280_temperature;BME280_humidity;BME280_pressure;Samples;Min_cycle;Max_cycle;Signal;HPM_P1;HPM_P2
2023/05/31 00:00:21;;;;;;;;;;;;;;;;;;4971287;28;19921;-71
2023/05/31 00:02:47;;;;;;;;;;;;;;;;;;4977691;28;20448;-71
2023/05/31 00:05:13;;;;;;;;;;;;;;;;;;4974748;28;20007;-71
2023/05/31 00:07:39;;;;;;;;;;;;;;;;;;4975860;28;19956;-71
2023/05/31 00:10:05;;;;;;;;;;;;;;;;;;4974795;28;19913;-72
2023/05/31 00:12:31;;;;;;;;;;;;;;;;;;4975045;28;20036;-72
2023/05/31 00:14:57;;;;;;;;;;;;;;;;;;4971685;28;19917;-72
2023/05/31 00:17:23;;;;;;;;;;;;;;;;;;4971231;28;23667;-72
2023/05/31 00:19:49;;;;;;;;;;;;;;;;;;4975009;28;20272;-71
2023/05/31 00:22:16;;;;;;;;;;;;;;;;;;4970970;28;19913;-70
2023/05/31 00:24:42;;;;;;;;;;;;;;;;;;4971643;28;19922;-72
2023/05/31 00:27:08;;;;;;;;;;;;;;;;;;4973569;28;20331;-70
2023/05/31 00:29:34;;;;;;;;;;;;;;;;;;4979298;28;19913;-72
2023/05/31 00:32:02;;;;;;;;;;;;;;;;;;4977583;28;19931;-72
2023/05/31 00:34:28;;;;;;;;;;;;;;;;;;4975095;28;19914;-72
2023/05/31 00:36:54;;;;;;;;;;;;;;;;;;4977779;28;20346;-71
2023/05/31 00:39:20;;;;;;;;;;;;;;;;;;4975713;28;19913;-72
2023/05/31 00:41:46;;;;;;;;;;;;;;;;;;4974711;28;20441;-72
2023/05/31 00:44:11;;;;;;;;;;;;;;;;;;4973867;28;19913;-72
2023/05/31 00:46:37;;;;;;;;;;;;;;;;;;4977770;28;20016;-72
2023/05/31 00:49:03;;;;;;;;;;;;;;;;;;4971954;28;19976;-72
2023/05/31 00:51:30;;;;;;;;;;;;;;;;;;4972472;28;19917;-72
2023/05/31 00:53:56;;;;;;;;;;;;;;;;;;4991437;28;20230;-72
2023/05/31 00:56:22;;;;;;;;;;;;;;;;;;4971556;28;20359;-71
2023/05/31 00:58:48;;;;;;;;;;;;;;;;;;4978063;28;19913;-70
2023/05/31 01:01:14;;;;;;;;;;;;;;;;;;4974503;28;20299;-70
2023/05/31 01:03:40;;;;;;;;;;;;;;;;;;4977165;28;19914;-70
2023/05/31 01:06:07;;;;;;;;;;;;;;;;;;4972422;28;20266;-70
2023/05/31 01:08:33;;;;;;;;;;;;;;;;;;4973430;28;20386;-70
2023/05/31 01:10:59;;;;;;;;;;;;;;;;;;4979856;28;20399;-70
2023/05/31 01:13:25;;;;;;;;;;;;;;;;;;4970230;28;19914;-70
2023/05/31 01:15:51;;;;;;;;;;;;;;;;;;4987438;28;19917;-70
2023/05/31 01:18:19;;;;;;;;;;;;;;;;;;4974407;28;20033;-70
2023/05/31 01:20:49;;;;;;;;;;;;;;;;;;4974996;28;20759;-70
2023/05/31 01:23:16;;;;;;;;;;;;;;;;;;4976034;28;20368;-70
2023/05/31 01:25:42;;;;;;;;;;;;;;;;;;4977247;28;19924;-70
2023/05/31 01:28:08;;;;;;;;;;;;;;;;;;4972369;28;20009;-70
2023/05/31 01:30:34;;;;;;;;;;;;;;;;;;4975108;28;19929;-71
2023/05/31 01:33:00;;;;;;;;;;;;;;;;;;4978836;28;19917;-70
2023/05/31 01:35:27;;;;;;;;;;;;;;;;;;4972336;28;19953;-70
2023/05/31 01:37:53;;;;;;;;;;;;;;;;;;4973814;28;20036;-72
2023/05/31 01:40:19;;;;;;;;;;;;;;;;;;4977890;28;20281;-69
2023/05/31 01:42:45;;;;;;;;;;;;;;;;;;4979195;28;19913;-70
2023/05/31 01:45:11;;;;;;;;;;;;;;;;;;4976852;28;20368;-70
2023/05/31 01:47:37;;;;;;;;;;;;;;;;;;4985451;28;20114;-70
2023/05/31 01:50:03;;;;;;;;;;;;;;;;;;4981863;28;19914;-72
2023/05/31 01:52:29;;;;;;;;;;;;;;;;;;4979797;28;19918;-70
2023/05/31 01:54:55;;;;;;;;;;;;;;;;;;4981515;28;19948;-69
2023/05/31 01:57:21;;;;;;;;;;;;;;;;;;4977984;28;19921;-72
2023/05/31 01:59:47;;;;;;;;;;;;;;;;;;4980755;28;19990;-72
2023/05/31 02:02:13;;;;;;;;;;;;;;;;;;4975339;28;20387;-71
2023/05/31 02:04:39;;;;;;;;;;;;;;;;;;4978818;28;20348;-72
2023/05/31 02:07:05;;;;;;;;;;;;;;;;;;4978355;28;20000;-72
2023/05/31 02:09:31;;;;;;;;;;;;;;;;;;5012373;28;19918;-72
2023/05/31 02:11:57;;;;;;;;;;;;;;;;;;4983533;28;20449;-71
2023/05/31 02:14:23;;;;;;;;;;;;;;;;;;4978590;28;19925;-70
2023/05/31 02:16:49;;;;;;;;;;;;;;;;;;4979363;28;20241;-70
2023/05/31 02:19:15;;;;;;;;;;;;;;;;;;4974719;28;20014;-70
2023/05/31 02:21:41;;;;;;;;;;;;;;;;;;4980975;28;19914;-70
2023/05/31 02:24:07;;;;;;;;;;;;;;;;;;4976394;28;19924;-70
2023/05/31 02:26:33;;;;;;;;;;;;;;;;;;4977821;28;20322;-70
2023/05/31 02:28:59;;;;;;;;;;;;;;;;;;4977477;28;19924;-70
2023/05/31 02:31:25;;;;;;;;;;;;;;;;;;4972682;28;20644;-71
2023/05/31 02:33:51;;;;;;;;;;;;;;;;;;4976550;28;19975;-70
2023/05/31 02:36:18;;;;;;;;;;;;;;;;;;4972150;28;20311;-70
2023/05/31 02:38:44;;;;;;;;;;;;;;;;;;4979273;28;19999;-70
2023/05/31 02:41:10;;;;;;;;;;;;;;;;;;4974810;28;20317;-70
2023/05/31 02:43:36;;;;;;;;;;;;;;;;;;4980372;28;20261;-70
2023/05/31 02:46:02;;;;;;;;;;;;;;;;;;4978666;28;19914;-70
2023/05/31 02:48:29;;;;;;;;;;;;;;;;;;4977291;28;19946;-71
2023/05/31 02:50:55;;;;;;;;;;;;;;;;;;4974792;28;19917;-69
2023/05/31 02:53:21;;;;;;;;;;;;;;;;;;4975342;28;19913;-69
2023/05/31 02:55:47;;;;;;;;;;;;;;;;;;4977743;28;19913;-70
2023/05/31 02:58:14;;;;;;;;;;;;;;;;;;4973544;28;20312;-70
2023/05/31 03:00:40;;;;;;;;;;;;;;;;;;4974046;28;19913;-72
2023/05/31 03:03:06;;;;;;;;;;;;;;;;;;4976182;28;19987;-72
2023/05/31 03:05:33;;;;;;;;;;;;;;;;;;4975352;28;20711;-72
2023/05/31 03:07:59;;;;;;;;;;;;;;;;;;4975663;28;19921;-71
2023/05/31 03:10:25;;;;;;;;;;;;;;;;;;4976129;28;19913;-71
2023/05/31 03:12:54;;;;;;;;;;;;;;;;;;4976628;28;20026;-71
2023/05/31 03:15:20;;;;;;;;;;;;;;;;;;4971458;28;20243;-72
2023/05/31 03:17:46;;;;;;;;;;;;;;;;;;4977270;28;20366;-72
2023/05/31 03:20:12;;;;;;;;;;;;;;;;;;4977071;28;20102;-70
2023/05/31 03:22:39;;;;;;;;;;;;;;;;;;4974657;28;20236;-72
2023/05/31 03:25:05;;;;;;;;;;;;;;;;;;4974976;28;20032;-72
2023/05/31 03:27:31;;;;;;;;;;;;;;;;;;4974744;28;20027;-71
2023/05/31 03:29:57;;;;;;;;;;;;;;;;;;4977940;28;19917;-71
2023/05/31 03:32:23;;;;;;;;;;;;;;;;;;4972860;28;22220;-71
2023/05/31 03:34:49;;;;;;;;;;;;;;;;;;4972190;28;20007;-71
2023/05/31 03:37:15;;;;;;;;;;;;;;;;;;4975453;28;20113;-71
2023/05/31 03:39:41;;;;;;;;;;;;;;;;;;4979073;28;19963;-71
2023/05/31 03:42:07;;;;;;;;;;;;;;;;;;4977932;28;19913;-71
2023/05/31 03:44:33;;;;;;;;;;;;;;;;;;4977118;28;20357;-71
2023/05/31 03:46:59;;;;;;;;;;;;;;;;;;4976952;28;19913;-70
2023/05/31 03:49:25;;;;;;;;;;;;;;;;;;4972202;28;20366;-70
2023/05/31 03:51:51;;;;;;;;;;;;;;;;;;4976298;28;19928;-71
2023/05/31 03:54:17;;;;;;;;;;;;;;;;;;4973281;28;19913;-70
2023/05/31 03:56:43;;;;;;;;;;;;;;;;;;4976049;28;20011;-70
2023/05/31 03:59:08;;;;;;;;;;;;;;;;;;4974170;28;19913;-70
2023/05/31 04:01:34;;;;;;;;;;;;;;;;;;4975664;28;19983;-70
2023/05/31 04:04:01;;;;;;;;;;;;;;;;;;4978389;28;19924;-70
2023/05/31 04:06:28;;;;;;;;;;;;;;;;;;4972121;28;20285;-70
2023/05/31 04:08:54;;;;;;;;;;;;;;;;;;4978047;28;19917;-70
2023/05/31 04:11:20;;;;;;;;;;;;;;;;;;4972521;28;19917;-70
2023/05/31 04:13:46;;;;;;;;;;;;;;;;;;4975624;28;19913;-70
2023/05/31 04:16:12;;;;;;;;;;;;;;;;;;4972278;28;19921;-70
2023/05/31 04:18:38;;;;;;;;;;;;;;;;;;4974615;28;20399;-70
2023/05/31 04:21:04;;;;;;;;;;;;;;;;;;4975927;28;19913;-70
2023/05/31 04:23:30;;;;;;;;;;;;;;;;;;4973941;28;20646;-72
2023/05/31 04:25:57;;;;;;;;;;;;;;;;;;4976385;28;20479;-72
2023/05/31 04:28:23;;;;;;;;;;;;;;;;;;4971787;28;22360;-72
2023/05/31 04:30:51;;;;;;;;;;;;;;;;;;4978996;28;19929;-70
2023/05/31 04:33:18;;;;;;;;;;;;;;;;;;4971847;28;19940;-70
2023/05/31 04:35:44;;;;;;;;;;;;;;;;;;4974744;28;20016;-70
2023/05/31 04:38:11;;;;;;;;;;;;;;;;;;4974576;28;19918;-70
2023/05/31 04:40:40;;;;;;;;;;;;;;;;;;4977424;28;19920;-70
2023/05/31 04:43:06;;;;;;;;;;;;;;;;;;4967994;28;19913;-70
2023/05/31 04:45:32;;;;;;;;;;;;;;;;;;4976056;28;19980;-72
2023/05/31 04:47:58;;;;;;;;;;;;;;;;;;4976099;28;19913;-73
2023/05/31 04:50:24;;;;;;;;;;;;;;;;;;4973236;28;19918;-72
2023/05/31 04:52:51;;;;;;;;;;;;;;;;;;4976597;28;20729;-72
2023/05/31 04:55:17;;;;;;;;;;;;;;;;;;4969795;28;19967;-72
2023/05/31 04:57:43;;;;;;;;;;;;;;;;;;4977531;28;19914;-72
2023/05/31 05:00:15;;;;;;;;;;;;;;;;;;4970100;28;19924;-72
2023/05/31 05:02:41;;;;;;;;;;;;;;;;;;4978002;28;20981;-71
2023/05/31 05:05:07;;;;;;;;;;;;;;;;;;4971326;28;19929;-72
2023/05/31 05:07:33;;;;;;;;;;;;;;;;;;4974875;28;20451;-71
2023/05/31 05:09:59;;;;;;;;;;;;;;;;;;4990307;28;19913;-71
2023/05/31 05:12:25;;;;;;;;;;;;;;;;;;4970974;28;20606;-71
2023/05/31 05:14:51;;;;;;;;;;;;;;;;;;4980751;28;19913;-71
2023/05/31 05:17:17;;;;;;;;;;;;;;;;;;4981017;28;20484;-71
2023/05/31 05:19:43;;;;;;;;;;;;;;;;;;4981299;28;19925;-70
2023/05/31 05:22:09;;;;;;;;;;;;;;;;;;4976836;28;19917;-71
2023/05/31 05:24:35;;;;;;;;;;;;;;;;;;4983933;28;20256;-72
2023/05/31 05:27:01;;;;;;;;;;;;;;;;;;4983387;28;19924;-72
2023/05/31 05:29:27;;;;;;;;;;;;;;;;;;4980060;28;20445;-71
2023/05/31 05:31:53;;;;;;;;;;;;;;;;;;4981401;28;19921;-72
2023/05/31 05:34:20;;;;;;;;;;;;;;;;;;4980799;28;20611;-72
2023/05/31 05:36:46;;;;;;;;;;;;;;;;;;4982079;28;20429;-72
2023/05/31 05:39:12;;;;;;;;;;;;;;;;;;4979245;28;20542;-72
2023/05/31 05:41:38;;;;;;;;;;;;;;;;;;4982249;28;20331;-70
2023/05/31 05:44:04;;;;;;;;;;;;;;;;;;4995937;28;19921;-71
2023/05/31 05:46:30;;;;;;;;;;;;;;;;;;4983448;28;20201;-70
2023/05/31 05:48:56;;;;;;;;;;;;;;;;;;5000507;28;20011;-70
2023/05/31 05:51:22;;;;;;;;;;;;;;;;;;4979500;28;19921;-70
2023/05/31 05:53:48;;;;;;;;;;;;;;;;;;4979357;28;20496;-70
2023/05/31 05:56:20;;;;;;;;;;;;;;;;;;4981630;28;19913;-70
2023/05/31 05:58:46;;;;;;;;;;;;;;;;;;4982664;28;20277;-70
2023/05/31 06:01:12;;;;;;;;;;;;;;;;;;4977999;28;19985;-70
2023/05/31 06:03:38;;;;;;;;;;;;;;;;;;4981371;28;19968;-70
2023/05/31 06:06:04;;;;;;;;;;;;;;;;;;4976114;28;20232;-70
2023/05/31 06:08:30;;;;;;;;;;;;;;;;;;4982209;28;20353;-70
2023/05/31 06:10:56;;;;;;;;;;;;;;;;;;4982537;28;19917;-70
2023/05/31 06:13:22;;;;;;;;;;;;;;;;;;4979652;28;19917;-71
2023/05/31 06:15:48;;;;;;;;;;;;;;;;;;4982392;28;19909;-72
2023/05/31 06:18:15;;;;;;;;;;;;;;;;;;4977205;28;19913;-72
2023/05/31 06:20:41;;;;;;;;;;;;;;;;;;4978427;28;19944;-73
2023/05/31 06:23:07;;;;;;;;;;;;;;;;;;4978214;28;19913;-70
2023/05/31 06:25:35;;;;;;;;;;;;;;;;;;4978334;28;19968;-70
2023/05/31 06:28:01;;;;;;;;;;;;;;;;;;4979479;28;20195;-71
2023/05/31 06:30:27;;;;;;;;;;;;;;;;;;4976285;28;20417;-72
2023/05/31 06:32:53;;;;;;;;;;;;;;;;;;4979013;28;19983;-71
2023/05/31 06:35:19;;;;;;;;;;;;;;;;;;4977759;28;20185;-71
2023/05/31 06:37:46;;;;;;;;;;;;;;;;;;4981416;28;19957;-71
2023/05/31 06:40:12;;;;;;;;;;;;;;;;;;4977127;28;20276;-70
2023/05/31 06:42:38;;;;;;;;;;;;;;;;;;4983091;28;19913;-71
2023/05/31 06:45:04;;;;;;;;;;;;;;;;;;4975618;28;19917;-70
2023/05/31 06:47:30;;;;;;;;;;;;;;;;;;4982024;28;20367;-72
2023/05/31 06:49:56;;;;;;;;;;;;;;;;;;4980546;28;20373;-70
2023/05/31 06:52:22;;;;;;;;;;;;;;;;;;4974760;28;20333;-70
2023/05/31 06:54:48;;;;;;;;;;;;;;;;;;4978401;28;19949;-70
2023/05/31 06:57:14;;;;;;;;;;;;;;;;;;4973520;28;19936;-70
2023/05/31 06:59:40;;;;;;;;;;;;;;;;;;4977161;28;19910;-70
2023/05/31 07:02:06;;;;;;;;;;;;;;;;;;4979237;28;20338;-71
2023/05/31 07:04:32;;;;;;;;;;;;;;;;;;4982019;28;20076;-71
2023/05/31 07:06:58;;;;;;;;;;;;;;;;;;4983942;28;20421;-70
2023/05/31 07:09:24;;;;;;;;;;;;;;;;;;4975623;28;20295;-72
2023/05/31 07:11:50;;;;;;;;;;;;;;;;;;4981280;28;19924;-72
2023/05/31 07:14:16;;;;;;;;;;;;;;;;;;4977724;28;20691;-72
2023/05/31 07:16:42;;;;;;;;;;;;;;;;;;4981879;28;20602;-71
2023/05/31 07:19:08;;;;;;;;;;;;;;;;;;4978969;28;19924;-69
2023/05/31 07:21:34;;;;;;;;;;;;;;;;;;4982534;28;20350;-70
2023/05/31 07:24:00;;;;;;;;;;;;;;;;;;4973370;28;19957;-72
2023/05/31 07:26:26;;;;;;;;;;;;;;;;;;4977712;28;19925;-72
2023/05/31 07:28:52;;;;;;;;;;;;;;;;;;4976909;28;19910;-72
2023/05/31 07:31:18;;;;;;;;;;;;;;;;;;4972849;28;19933;-72
2023/05/31 07:33:44;;;;;;;;;;;;;;;;;;4980718;28;19992;-69
2023/05/31 07:36:10;;;;;;;;;;;;;;;;;;4974182;28;19913;-70
2023/05/31 07:38:36;;;;;;;;;;;;;;;;;;4976060;28;19976;-72
2023/05/31 07:41:02;;;;;;;;;;;;;;;;;;4979092;28;20346;-72
2023/05/31 07:43:29;;;;;;;;;;;;;;;;;;4975325;28;19917;-72
2023/05/31 07:45:55;;;;;;;;;;;;;;;;;;4976112;28;19956;-72
2023/05/31 07:48:21;;;;;;;;;;;;;;;;;;4976692;28;20040;-72
2023/05/31 07:50:47;;;;;;;;;;;;;;;;;;4975126;28;20461;-70
2023/05/31 07:53:13;;;;;;;;;;;;;;;;;;4976613;28;19913;-72
2023/05/31 07:55:39;;;;;;;;;;;;;;;;;;4978234;28;19914;-72
2023/05/31 07:58:05;;;;;;;;;;;;;;;;;;4974499;28;20003;-73
2023/05/31 08:00:31;;;;;;;;;;;;;;;;;;4986518;28;20699;-71
2023/05/31 08:02:57;;;;;;;;;;;;;;;;;;4976299;28;19920;-70
2023/05/31 08:05:23;;;;;;;;;;;;;;;;;;4971016;28;24774;-71
2023/05/31 08:07:49;;;;;;;;;;;;;;;;;;4975549;28;20371;-70
2023/05/31 08:10:15;;;;;;;;;;;;;;;;;;4975779;28;19953;-71
2023/05/31 08:12:41;;;;;;;;;;;;;;;;;;4976412;28;19918;-70
2023/05/31 08:15:07;;;;;;;;;;;;;;;;;;4973424;28;19944;-72
2023/05/31 08:17:33;;;;;;;;;;;;;;;;;;4977983;28;20524;-70
2023/05/31 08:19:59;;;;;;;;;;;;;;;;;;4979162;28;19940;-71
2023/05/31 08:22:25;;;;;;;;;;;;;;;;;;4972445;28;20069;-70
2023/05/31 08:24:51;;;;;;;;;;;;;;;;;;4978036;28;20067;-71
2023/05/31 08:27:17;;;;;;;;;;;;;;;;;;4973106;28;20377;-71
2023/05/31 08:29:43;;;;;;;;;;;;;;;;;;4974180;28;19920;-70
2023/05/31 08:32:09;;;;;;;;;;;;;;;;;;4977069;28;20395;-70
2023/05/31 08:34:35;;;;;;;;;;;;;;;;;;4976730;28;19967;-70
2023/05/31 08:37:01;;;;;;;;;;;;;;;;;;4975079;28;20516;-70
2023/05/31 08:39:27;;;;;;;;;;;;;;;;;;4975397;28;20546;-70
2023/05/31 08:41:53;;;;;;;;;;;;;;;;;;4974246;28;20335;-70
2023/05/31 08:44:19;;;;;;;;;;;;;;;;;;4972147;28;20694;-70
2023/05/31 08:46:46;;;;;;;;;;;;;;;;;;4980725;28;19940;-70
2023/05/31 08:49:13;;;;;;;;;;;;;;;;;;4971500;28;20214;-72
2023/05/31 08:51:39;;;;;;;;;;;;;;;;;;4976342;28;20388;-70
2023/05/31 08:54:05;;;;;;;;;;;;;;;;;;4970876;28;19914;-71
2023/05/31 08:56:31;;;;;;;;;;;;;;;;;;4980882;28;19913;-71
2023/05/31 08:58:57;;;;;;;;;;;;;;;;;;4976262;28;20007;-71
2023/05/31 09:01:23;;;;;;;;;;;;;;;;;;4976966;28;20205;-71
2023/05/31 09:03:49;;;;;;;;;;;;;;;;;;4980599;28;19924;-71
2023/05/31 09:06:16;;;;;;;;;;;;;;;;;;4975368;28;19917;-72
2023/05/31 09:08:42;;;;;;;;;;;;;;;;;;4982420;28;19909;-71
2023/05/31 09:11:08;;;;;;;;;;;;;;;;;;4974506;28;19924;-71
2023/05/31 09:13:34;;;;;;;;;;;;;;;;;;4980039;28;19936;-71
2023/05/31 09:16:00;;;;;;;;;;;;;;;;;;4980792;28;20347;-72
2023/05/31 09:18:31;;;;;;;;;;;;;;;;;;4975316;28;19992;-70
2023/05/31 09:20:57;;;;;;;;;;;;;;;;;;4977174;28;19987;-70
2023/05/31 09:23:24;;;;;;;;;;;;;;;;;;4973648;28;20373;-70
2023/05/31 09:25:50;;;;;;;;;;;;;;;;;;4977544;28;19923;-71
2023/05/31 09:28:16;;;;;;;;;;;;;;;;;;4969095;28;20298;-70
2023/05/31 09:30:42;;;;;;;;;;;;;;;;;;4976729;28;19913;-72
2023/05/31 09:33:08;;;;;;;;;;;;;;;;;;4987096;28;20384;-71
2023/05/31 09:35:34;;;;;;;;;;;;;;;;;;4977675;28;20959;-70
2023/05/31 09:38:00;;;;;;;;;;;;;;;;;;4979961;28;20272;-70
2023/05/31 09:40:26;;;;;;;;;;;;;;;;;;4973363;28;20644;-71
2023/05/31 09:42:52;;;;;;;;;;;;;;;;;;4979996;28;19979;-70
2023/05/31 09:45:18;;;;;;;;;;;;;;;;;;4973956;28;19984;-71
2023/05/31 09:47:44;;;;;;;;;;;;;;;;;;4977220;28;19968;-73
2023/05/31 09:50:10;;;;;;;;;;;;;;;;;;4976094;28;20002;-71
2023/05/31 09:52:40;;;;;;;;;;;;;;;;;;4976058;28;20243;-70
2023/05/31 09:55:06;;;;;;;;;;;;;;;;;;4971856;28;20256;-71
2023/05/31 09:57:33;;;;;;;;;;;;;;;;;;4979725;28;19975;-71
2023/05/31 10:00:06;;;;;;;;;;;;;;;;;;4976392;28;20425;-70
2023/05/31 10:02:31;;;;;;;;;;;;;;;;;;4980781;28;20519;-72
2023/05/31 10:04:57;;;;;;;;;;;;;;;;;;4979262;28;19914;-70
2023/05/31 10:07:24;;;;;;;;;;;;;;;;;;4979211;28;20597;-72
2023/05/31 10:09:50;;;;;;;;;;;;;;;;;;4980596;28;19913;-70
2023/05/31 10:12:16;;;;;;;;;;;;;;;;;;4977517;28;20586;-71
2023/05/31 10:14:42;;;;;;;;;;;;;;;;;;4983334;28;20056;-71
2023/05/31 10:17:08;;;;;;;;;;;;;;;;;;4979962;28;20374;-71
2023/05/31 10:19:34;;;;;;;;;;;;;;;;;;4981852;28;19921;-71
2023/05/31 10:22:00;;;;;;;;;;;;;;;;;;4995044;28;20688;-71
2023/05/31 10:24:26;;;;;;;;;;;;;;;;;;4975621;28;19957;-73
2023/05/31 10:26:52;;;;;;;;;;;;;;;;;;4977361;28;19920;-71
2023/05/31 10:29:18;;;;;;;;;;;;;;;;;;4975909;28;20161;-72
2023/05/31 10:31:44;;;;;;;;;;;;;;;;;;4979336;28;19972;-70
2023/05/31 10:34:10;;;;;;;;;;;;;;;;;;4976138;28;19913;-71
2023/05/31 10:36:36;;;;;;;;;;;;;;;;;;4981701;28;20364;-71
2023/05/31 10:39:03;;;;;;;;;;;;;;;;;;4979794;28;19917;-71
2023/05/31 10:41:29;;;;;;;;;;;;;;;;;;4980472;28;20023;-70
2023/05/31 10:43:55;;;;;;;;;;;;;;;;;;4981791;28;19967;-71
2023/05/31 10:46:21;;;;;;;;;;;;;;;;;;4972494;28;20022;-72
2023/05/31 10:48:47;;;;;;;;;;;;;;;;;;4977446;28;19922;-72
2023/05/31 10:51:13;;;;;;;;;;;;;;;;;;4975851;28;19986;-72
2023/05/31 10:53:39;;;;;;;;;;;;;;;;;;4981917;28;20384;-71
2023/05/31 10:56:05;;;;;;;;;;;;;;;;;;4978788;28;20363;-71
2023/05/31 10:58:31;;;;;;;;;;;;;;;;;;4980070;28;20495;-71
2023/05/31 11:00:57;;;;;;;;;;;;;;;;;;4978001;28;19913;-73
2023/05/31 11:03:23;;;;;;;;;;;;;;;;;;4974919;28;20106;-73
2023/05/31 11:05:49;;;;;;;;;;;;;;;;;;4980922;28;19925;-73
2023/05/31 11:08:15;;;;;;;;;;;;;;;;;;4975943;28;19913;-72
2023/05/31 11:10:41;;;;;;;;;;;;;;;;;;4978309;28;20011;-72
2023/05/31 11:13:07;;;;;;;;;;;;;;;;;;4976588;28;19961;-72
2023/05/31 11:15:33;;;;;;;;;;;;;;;;;;4980766;28;19913;-73
2023/05/31 11:17:59;;;;;;;;;;;;;;;;;;4981830;28;19919;-73
2023/05/31 11:20:25;;;;;;;;;;;;;;;;;;4976593;28;20058;-74
2023/05/31 11:22:51;;;;;;;;;;;;;;;;;;4976653;28;20348;-73
2023/05/31 11:25:17;;;;;;;;;;;;;;;;;;4972429;28;19921;-73
2023/05/31 11:27:48;;;;;;;;;;;;;;;;;;4980841;28;19952;-73
2023/05/31 11:30:14;;;;;;;;;;;;;;;;;;4974568;28;20021;-73
2023/05/31 11:32:40;;;;;;;;;;;;;;;;;;4979806;28;20348;-73
2023/05/31 11:35:08;;;;;;;;;;;;;;;;;;4977845;28;19963;-73
2023/05/31 11:37:35;;;;;;;;;;;;;;;;;;4979838;28;19921;-73
2023/05/31 11:40:01;;;;;;;;;;;;;;;;;;4980430;28;19952;-73
2023/05/31 11:42:27;;;;;;;;;;;;;;;;;;4976018;28;20453;-73
2023/05/31 11:44:53;;;;;;;;;;;;;;;;;;4976586;28;20032;-73
2023/05/31 11:47:19;;;;;;;;;;;;;;;;;;4972816;28;20027;-71
2023/05/31 11:49:45;;;;;;;;;;;;;;;;;;4976504;28;20045;-71
2023/05/31 11:52:11;;;;;;;;;;;;;;;;;;4975880;28;19929;-70
2023/05/31 11:54:37;;;;;;;;;;;;;;;;;;4978089;28;19960;-70
2023/05/31 11:57:04;;;;;;;;;;;;;;;;;;4979576;28;19913;-71
2023/05/31 11:59:31;;;;;;;;;;;;;;;;;;4977780;28;19996;-71
2023/05/31 12:01:59;;;;;;;;;;;;;;;;;;4980288;28;20263;-70
2023/05/31 12:04:25;;;;;;;;;;;;;;;;;;4973143;28;19957;-72
2023/05/31 12:06:50;;;;;;;;;;;;;;;;;;4972824;28;20488;-70
2023/05/31 12:09:16;;;;;;;;;;;;;;;;;;4969872;28;20376;-70
2023/05/31 12:11:42;;;;;;;;;;;;;;;;;;4973945;28;20335;-70
2023/05/31 12:14:08;;;;;;;;;;;;;;;;;;4971327;28;20273;-71
2023/05/31 12:16:34;;;;;;;;;;;;;;;;;;4976998;28;19913;-70
2023/05/31 12:19:00;;;;;;;;;;;;;;;;;;4974517;28;20142;-70
2023/05/31 12:21:26;;;;;;;;;;;;;;;;;;4971957;28;20319;-70
2023/05/31 12:23:52;;;;;;;;;;;;;;;;;;4971952;28;19917;-71
2023/05/31 12:26:18;;;;;;;;;;;;;;;;;;4971201;28;19921;-71
2023/05/31 12:28:44;;;;;;;;;;;;;;;;;;4975354;28;19949;-72
2023/05/31 12:31:10;;;;;;;;;;;;;;;;;;4970298;28;19921;-72
2023/05/31 12:33:36;;;;;;;;;;;;;;;;;;4975966;28;19913;-71
2023/05/31 12:36:02;;;;;;;;;;;;;;;;;;4976464;28;19917;-71
2023/05/31 12:38:28;;;;;;;;;;;;;;;;;;4973724;28;19914;-68
2023/05/31 12:40:54;;;;;;;;;;;;;;;;;;4971828;28;19948;-70
2023/05/31 12:43:20;;;;;;;;;;;;;;;;;;4971977;28;19917;-69
2023/05/31 12:45:46;;;;;;;;;;;;;;;;;;4977398;28;20260;-69
2023/05/31 12:48:12;;;;;;;;;;;;;;;;;;4974346;28;20007;-69
2023/05/31 12:50:38;;;;;;;;;;;;;;;;;;4975344;28;19913;-67
2023/05/31 12:53:04;;;;;;;;;;;;;;;;;;4971866;28;20000;-70
2023/05/31 12:55:30;;;;;;;;;;;;;;;;;;4974587;28;20213;-72
2023/05/31 12:57:56;;;;;;;;;;;;;;;;;;4973807;28;19967;-70
2023/05/31 13:00:22;;;;;;;;;;;;;;;;;;4970143;28;19920;-70
2023/05/31 13:02:50;;;;;;;;;;;;;;;;;;4971728;28;19914;-71
2023/05/31 13:05:16;;;;;;;;;;;;;;;;;;4969103;28;19964;-67
2023/05/31 13:07:42;;;;;;;;;;;;;;;;;;4975008;28;20008;-66
2023/05/31 13:10:08;;;;;;;;;;;;;;;;;;4971163;28;19913;-66
2023/05/31 13:12:34;;;;;;;;;;;;;;;;;;4972048;28;19917;-67
2023/05/31 13:15:00;;;;;;;;;;;;;;;;;;4971027;28;20245;-66
2023/05/31 13:17:26;;;;;;;;;;;;;;;;;;4972859;28;20409;-67
2023/05/31 13:19:52;;;;;;;;;;;;;;;;;;4976773;28;20779;-67
2023/05/31 13:22:18;;;;;;;;;;;;;;;;;;4970393;28;20327;-68
2023/05/31 13:24:44;;;;;;;;;;;;;;;;;;4976467;28;20039;-67
2023/05/31 13:27:10;;;;;;;;;;;;;;;;;;4972730;28;20181;-68
2023/05/31 13:29:36;;;;;;;;;;;;;;;;;;4977710;28;20334;-67
2023/05/31 13:32:02;;;;;;;;;;;;;;;;;;4978064;28;19928;-68
2023/05/31 13:34:28;;;;;;;;;;;;;;;;;;4971482;28;19944;-67
2023/05/31 13:36:55;;;;;;;;;;;;;;;;;;4979404;28;19983;-67
2023/05/31 13:39:21;;;;;;;;;;;;;;;;;;4973349;28;20393;-68
2023/05/31 13:41:47;;;;;;;;;;;;;;;;;;4976613;28;19910;-68
2023/05/31 13:44:15;;;;;;;;;;;;;;;;;;4977625;28;19962;-68
2023/05/31 13:46:41;;;;;;;;;;;;;;;;;;4978983;28;20328;-68
2023/05/31 13:49:07;;;;;;;;;;;;;;;;;;4976314;28;19952;-69
2023/05/31 13:51:34;;;;;;;;;;;;;;;;;;4978865;28;19940;-69
2023/05/31 13:54:00;;;;;;;;;;;;;;;;;;4981144;28;20037;-69
2023/05/31 13:56:26;;;;;;;;;;;;;;;;;;4977941;28;19917;-70
2023/05/31 13:58:52;;;;;;;;;;;;;;;;;;4978423;28;20260;-70
2023/05/31 14:01:18;;;;;;;;;;;;;;;;;;4976174;28;20616;-69
2023/05/31 14:03:44;;;;;;;;;;;;;;;;;;4977186;28;19910;-70
2023/05/31 14:06:10;;;;;;;;;;;;;;;;;;4971723;28;20249;-72
2023/05/31 14:08:36;;;;;;;;;;;;;;;;;;4981057;28;19913;-73
2023/05/31 14:11:03;;;;;;;;;;;;;;;;;;4978921;28;20536;-69
2023/05/31 14:13:32;;;;;;;;;;;;;;;;;;4973875;28;20445;-70
2023/05/31 14:15:59;;;;;;;;;;;;;;;;;;4977073;28;19913;-71
2023/05/31 14:18:25;;;;;;;;;;;;;;;;;;4973014;28;20846;-70
2023/05/31 14:20:53;;;;;;;;;;;;;;;;;;4977701;28;20381;-70
2023/05/31 14:23:19;;;;;;;;;;;;;;;;;;4976031;28;19913;-70
2023/05/31 14:25:45;;;;;;;;;;;;;;;;;;4977408;28;19920;-71
2023/05/31 14:28:11;;;;;;;;;;;;;;;;;;4975743;28;20035;-70
2023/05/31 14:30:37;;;;;;;;;;;;;;;;;;4980710;28;20034;-70
2023/05/31 14:33:03;;;;;;;;;;;;;;;;;;4975037;28;19921;-69
2023/05/31 14:35:29;;;;;;;;;;;;;;;;;;4977902;28;20290;-70
2023/05/31 14:37:55;;;;;;;;;;;;;;;;;;4977336;28;19955;-69
2023/05/31 14:40:21;;;;;;;;;;;;;;;;;;4971809;28;19913;-70
2023/05/31 14:42:47;;;;;;;;;;;;;;;;;;4991347;28;20425;-70
2023/05/31 14:45:13;;;;;;;;;;;;;;;;;;4975843;28;19921;-69
2023/05/31 14:47:39;;;;;;;;;;;;;;;;;;4974496;28;20808;-70
2023/05/31 14:50:05;;;;;;;;;;;;;;;;;;4971854;28;20138;-70
2023/05/31 14:52:31;;;;;;;;;;;;;;;;;;4978993;28;19921;-71
2023/05/31 14:54:57;;;;;;;;;;;;;;;;;;4974927;28;20008;-70
2023/05/31 14:57:23;;;;;;;;;;;;;;;;;;4973557;28;19920;-69
2023/05/31 14:59:49;;;;;;;;;;;;;;;;;;4974037;28;21158;-71
2023/05/31 15:02:15;;;;;;;;;;;;;;;;;;4970856;28;19913;-70
2023/05/31 15:04:41;;;;;;;;;;;;;;;;;;4972382;28;19913;-70
2023/05/31 15:07:07;;;;;;;;;;;;;;;;;;4973394;28;20436;-70
2023/05/31 15:09:33;;;;;;;;;;;;;;;;;;4977563;28;19928;-70
2023/05/31 15:11:59;;;;;;;;;;;;;;;;;;4976378;28;19917;-70
2023/05/31 15:14:25;;;;;;;;;;;;;;;;;;4973595;28;19920;-70
2023/05/31 15:16:51;;;;;;;;;;;;;;;;;;4976921;28;20189;-70
2023/05/31 15:19:17;;;;;;;;;;;;;;;;;;4974730;28;20081;-70
2023/05/31 15:21:43;;;;;;;;;;;;;;;;;;4976161;28;19913;-71
2023/05/31 15:24:09;;;;;;;;;;;;;;;;;;4988101;28;19963;-69
2023/05/31 15:26:35;;;;;;;;;;;;;;;;;;4974894;28;19939;-69
2023/05/31 15:29:02;;;;;;;;;;;;;;;;;;4974039;28;19917;-70
2023/05/31 15:31:27;;;;;;;;;;;;;;;;;;4974356;28;19921;-70
2023/05/31 15:33:53;;;;;;;;;;;;;;;;;;4976814;28;19913;-69
2023/05/31 15:36:19;;;;;;;;;;;;;;;;;;4973915;28;19957;-70
2023/05/31 15:38:45;;;;;;;;;;;;;;;;;;4978940;28;19939;-70
2023/05/31 15:41:11;;;;;;;;;;;;;;;;;;4975063;28;19920;-69
2023/05/31 15:43:37;;;;;;;;;;;;;;;;;;4974834;28;20607;-69
2023/05/31 15:46:03;;;;;;;;;;;;;;;;;;4972747;28;19924;-70
2023/05/31 15:48:29;;;;;;;;;;;;;;;;;;4975529;28;20017;-70
2023/05/31 15:50:55;;;;;;;;;;;;;;;;;;4974228;28;20380;-70
2023/05/31 15:53:21;;;;;;;;;;;;;;;;;;4970748;28;20011;-70
2023/05/31 15:55:48;;;;;;;;;;;;;;;;;;4975059;28;19914;-70
2023/05/31 15:58:14;;;;;;;;;;;;;;;;;;4973123;28;20326;-69
2023/05/31 16:00:40;;;;;;;;;;;;;;;;;;4977637;28;19970;-69
2023/05/31 16:03:06;;;;;;;;;;;;;;;;;;4972354;28;19913;-69
2023/05/31 16:05:32;;;;;;;;;;;;;;;;;;4979254;28;19917;-69
2023/05/31 16:07:58;;;;;;;;;;;;;;;;;;4971000;28;19914;-68
2023/05/31 16:10:24;;;;;;;;;;;;;;;;;;4968822;28;21826;-69
2023/05/31 16:12:50;;;;;;;;;;;;;;;;;;4974758;28;19923;-69
2023/05/31 16:15:16;;;;;;;;;;;;;;;;;;4970463;28;19913;-70
2023/05/31 16:17:42;;;;;;;;;;;;;;;;;;4973506;28;19913;-70
2023/05/31 16:20:08;;;;;;;;;;;;;;;;;;4970788;28;19914;-70
2023/05/31 16:22:34;;;;;;;;;;;;;;;;;;4974105;28;19960;-69
2023/05/31 16:25:00;;;;;;;;;;;;;;;;;;4976370;28;20347;-70
2023/05/31 16:27:26;;;;;;;;;;;;;;;;;;4972547;28;19913;-71
2023/05/31 16:29:52;;;;;;;;;;;;;;;;;;4974126;28;19913;-69
2023/05/31 16:32:18;;;;;;;;;;;;;;;;;;4971137;28;20379;-71
2023/05/31 16:34:45;;;;;;;;;;;;;;;;;;4973684;28;19913;-71
2023/05/31 16:37:11;;;;;;;;;;;;;;;;;;4971147;28;20023;-70